createdAt,value
2022-12-28T00:01:47.300Z,7.92
2022-12-28T00:04:17.048Z,7.91
2022-12-28T00:06:43.583Z,7.88
2022-12-28T00:09:12.790Z,8.06
2022-12-28T00:11:39.340Z,8.01
2022-12-28T00:14:06.013Z,8.09
2022-12-28T00:16:38.608Z,8.12
2022-12-28T00:19:10.168Z,8.12
2022-12-28T00:21:36.787Z,8.15
2022-12-28T00:24:03.918Z,8.22
2022-12-28T00:26:33.066Z,8.19
2022-12-28T00:29:04.699Z,8.29
2022-12-28T00:31:31.865Z,8.27
2022-12-28T00:33:58.483Z,8.30
2022-12-28T00:37:11.092Z,8.37
2022-12-28T00:39:11.966Z,8.28
2022-12-28T00:41:38.524Z,8.28
2022-12-28T00:44:05.065Z,8.34
2022-12-28T00:46:31.614Z,8.34
2022-12-28T00:48:58.133Z,8.16
2022-12-28T00:51:24.619Z,8.37
2022-12-28T00:53:51.101Z,8.32
2022-12-28T00:56:20.457Z,8.02
2022-12-28T00:58:47.149Z,8.03
2022-12-28T01:01:17.511Z,8.14
2022-12-28T01:03:44.333Z,8.07
2022-12-28T01:06:17.929Z,8.09
2022-12-28T01:08:44.768Z,8.00
2022-12-28T01:11:20.434Z,7.95
2022-12-28T01:13:48.335Z,8.03
2022-12-28T01:16:21.367Z,8.07
2022-12-28T01:18:49.090Z,8.04
2022-12-28T01:21:18.054Z,8.03
2022-12-28T01:23:46.096Z,8.11
2022-12-28T01:26:13.064Z,8.01
2022-12-28T01:28:39.688Z,8.09
2022-12-28T01:31:11.944Z,7.96
2022-12-28T01:33:38.848Z,7.90
2022-12-28T01:36:07.360Z,7.87
2022-12-28T01:38:34.174Z,7.88
2022-12-28T01:41:00.948Z,7.90
2022-12-28T01:43:47.275Z,7.82
2022-12-28T01:46:20.607Z,7.81
2022-12-28T01:48:52.828Z,7.84
2022-12-28T01:51:21.264Z,7.87
2022-12-28T01:53:50.956Z,7.80
2022-12-28T01:56:17.685Z,7.81
2022-12-28T01:58:45.342Z,7.75
2022-12-28T02:01:12.043Z,7.84
2022-12-28T02:03:38.726Z,7.89
2022-12-28T02:06:09.888Z,7.90
2022-12-28T02:08:46.416Z,7.86
2022-12-28T02:11:15.128Z,7.87
2022-12-28T02:13:44.660Z,7.84
2022-12-28T02:16:11.970Z,7.96
2022-12-28T02:18:41.691Z,8.02
2022-12-28T02:21:09.097Z,8.10
2022-12-28T02:23:57.335Z,8.10
2022-12-28T02:26:33.209Z,8.13
2022-12-28T02:29:24.027Z,8.07
2022-12-28T02:32:02.508Z,8.19
2022-12-28T02:34:37.536Z,8.28
2022-12-28T02:37:36.607Z,8.28
2022-12-28T02:40:18.757Z,8.35
2022-12-28T02:42:46.525Z,8.38
2022-12-28T02:45:56.035Z,8.45
2022-12-28T02:48:41.970Z,8.45
2022-12-28T02:51:36.175Z,8.42
2022-12-28T02:54:39.718Z,8.54
2022-12-28T02:57:27.298Z,8.64
2022-12-28T02:59:56.686Z,8.76
2022-12-28T03:03:03.085Z,8.75
2022-12-28T03:06:06.974Z,8.85
2022-12-28T03:08:45.342Z,8.70
2022-12-28T03:11:17.804Z,8.75
2022-12-28T03:13:56.332Z,8.83
2022-12-28T03:16:31.500Z,8.69
2022-12-28T03:19:24.310Z,8.66
2022-12-28T03:22:12.928Z,8.62
2022-12-28T03:25:00.896Z,8.41
2022-12-28T03:27:47.910Z,8.38
2022-12-28T03:30:37.819Z,8.34
2022-12-28T03:33:06.522Z,8.34
2022-12-28T03:35:46.184Z,8.17
2022-12-28T03:38:27.464Z,8.09
2022-12-28T03:41:08.279Z,8.11
2022-12-28T03:43:45.166Z,8.10
2022-12-28T03:46:23.868Z,8.13
2022-12-28T03:48:51.846Z,7.97
2022-12-28T03:51:22.899Z,8.10
2022-12-28T03:53:50.055Z,8.08
2022-12-28T03:56:18.774Z,8.13
2022-12-28T03:58:45.842Z,8.18
2022-12-28T04:01:12.949Z,8.28
2022-12-28T04:03:39.949Z,8.22
2022-12-28T04:06:07.625Z,8.21
2022-12-28T04:08:34.906Z,8.20
2022-12-28T04:11:02.095Z,8.15
2022-12-28T04:13:32.436Z,8.25
2022-12-28T04:16:04.436Z,8.29
2022-12-28T04:18:32.550Z,8.22
2022-12-28T04:20:59.608Z,8.23
2022-12-28T04:23:27.351Z,8.35
2022-12-28T04:26:01.301Z,8.22
2022-12-28T04:28:28.051Z,8.26
2022-12-28T04:30:55.515Z,8.30
2022-12-28T04:33:22.758Z,8.25
2022-12-28T04:35:49.549Z,8.31
2022-12-28T04:38:16.301Z,8.29
2022-12-28T04:40:43.364Z,8.23
2022-12-28T04:43:10.079Z,8.19
2022-12-28T04:45:36.778Z,8.09
2022-12-28T04:48:03.535Z,8.14
2022-12-28T04:50:30.209Z,8.10
2022-12-28T04:52:58.513Z,8.06
2022-12-28T04:55:31.966Z,8.07
2022-12-28T04:58:00.498Z,8.02
2022-12-28T05:00:27.154Z,8.03
2022-12-28T05:02:53.769Z,8.01
2022-12-28T05:05:20.374Z,7.98
2022-12-28T05:07:46.821Z,7.98
2022-12-28T05:10:13.322Z,7.93
2022-12-28T05:12:39.871Z,7.83
2022-12-28T05:15:07.126Z,7.90
2022-12-28T05:17:33.810Z,7.88
2022-12-28T05:20:00.369Z,7.93
2022-12-28T05:22:26.898Z,8.02
2022-12-28T05:24:53.420Z,7.99
2022-12-28T05:27:20.013Z,7.94
2022-12-28T05:29:46.442Z,7.90
2022-12-28T05:32:12.920Z,7.97
2022-12-28T05:34:39.939Z,7.94
2022-12-28T05:37:06.431Z,7.95
2022-12-28T05:39:32.962Z,7.88
2022-12-28T05:42:00.787Z,7.82
2022-12-28T05:44:27.526Z,7.99
2022-12-28T05:46:54.243Z,7.93
2022-12-28T05:49:21.033Z,7.96
2022-12-28T05:51:51.829Z,7.89
2022-12-28T05:54:18.337Z,7.90
2022-12-28T05:56:45.596Z,7.90
2022-12-28T05:59:13.552Z,8.01
2022-12-28T06:01:43.531Z,7.99
2022-12-28T06:04:18.606Z,8.02
2022-12-28T06:06:46.663Z,7.98
2022-12-28T06:09:14.122Z,8.00
2022-12-28T06:11:41.065Z,8.01
2022-12-28T06:14:08.166Z,8.00
2022-12-28T06:16:38.176Z,8.02
2022-12-28T06:19:10.720Z,8.12
2022-12-28T06:21:38.982Z,8.15
2022-12-28T06:24:06.922Z,8.18
2022-12-28T06:26:35.100Z,8.23
2022-12-28T06:29:02.158Z,8.26
2022-12-28T06:31:35.202Z,8.25
2022-12-28T06:34:03.854Z,8.29
2022-12-28T06:36:38.863Z,8.27
2022-12-28T06:39:07.781Z,8.34
2022-12-28T06:41:34.411Z,8.42
2022-12-28T06:44:01.187Z,8.42
2022-12-28T06:46:30.245Z,8.48
2022-12-28T06:48:57.307Z,8.50
2022-12-28T06:51:29.648Z,8.53
2022-12-28T06:53:56.370Z,8.63
2022-12-28T06:56:30.981Z,8.59
2022-12-28T06:59:02.945Z,8.56
2022-12-28T07:01:31.956Z,8.48
2022-12-28T07:03:59.769Z,8.63
2022-12-28T07:06:28.225Z,8.56
2022-12-28T07:09:00.216Z,8.60
2022-12-28T07:11:27.595Z,8.66
2022-12-28T07:13:54.060Z,8.62
2022-12-28T07:16:22.804Z,8.61
2022-12-28T07:18:50.111Z,8.58
2022-12-28T07:21:21.572Z,8.67
2022-12-28T07:23:50.087Z,8.71
2022-12-28T07:26:20.505Z,8.68
2022-12-28T07:28:49.349Z,8.70
2022-12-28T07:31:18.478Z,8.77
2022-12-28T07:33:46.879Z,8.74
2022-12-28T07:36:15.796Z,8.76
2022-12-28T07:38:42.388Z,8.80
2022-12-28T07:41:15.078Z,8.77
2022-12-28T07:43:42.104Z,8.88
2022-12-28T07:46:18.463Z,8.92
2022-12-28T07:48:45.306Z,8.92
2022-12-28T07:51:18.686Z,8.84
2022-12-28T07:53:47.521Z,8.85
2022-12-28T07:56:14.774Z,8.90
2022-12-28T08:01:10.472Z,8.93
2022-12-28T08:03:37.243Z,9.01
2022-12-28T08:06:09.456Z,8.91
2022-12-28T08:08:38.235Z,8.93
2022-12-28T08:11:07.331Z,8.98
2022-12-28T08:13:35.923Z,8.93
2022-12-28T08:16:02.908Z,8.95
2022-12-28T08:18:30.028Z,8.98
2022-12-28T08:21:04.770Z,9.03
2022-12-28T08:23:32.115Z,9.02
2022-12-28T08:26:26.588Z,8.99
2022-12-28T08:28:56.574Z,8.94
2022-12-28T08:31:26.319Z,9.06
2022-12-28T08:33:54.233Z,9.06
2022-12-28T08:36:21.000Z,9.10
2022-12-28T08:38:48.280Z,9.14
2022-12-28T08:41:17.535Z,9.12
2022-12-28T08:43:44.520Z,9.08
2022-12-28T08:46:18.324Z,9.10
2022-12-28T08:48:46.072Z,9.13
2022-12-28T08:51:16.814Z,9.19
2022-12-28T08:53:43.484Z,9.21
2022-12-28T08:56:31.124Z,9.26
2022-12-28T08:58:59.944Z,9.29
2022-12-28T09:01:35.869Z,9.37
2022-12-28T09:04:05.773Z,9.44
2022-12-28T09:06:35.277Z,9.47
2022-12-28T09:09:06.020Z,9.57
2022-12-28T09:11:38.012Z,9.55
2022-12-28T09:14:08.370Z,9.58
2022-12-28T09:16:35.961Z,9.60
2022-12-28T09:19:05.056Z,9.61
2022-12-28T09:21:34.539Z,9.76
2022-12-28T09:24:01.278Z,9.75
2022-12-28T09:26:31.186Z,9.77
2022-12-28T09:29:00.309Z,9.83
2022-12-28T09:31:29.665Z,9.81
2022-12-28T09:34:35.017Z,9.87
2022-12-28T09:36:45.855Z,9.95
2022-12-28T09:39:16.909Z,9.93
2022-12-28T09:41:46.007Z,9.95
2022-12-28T09:44:34.069Z,9.95
2022-12-28T09:47:24.861Z,10.03
2022-12-28T09:50:13.274Z,10.10
2022-12-28T09:52:58.233Z,10.10
2022-12-28T09:55:25.449Z,10.21
2022-12-28T09:57:55.657Z,10.17
2022-12-28T10:00:31.180Z,10.16
2022-12-28T10:03:02.023Z,10.29
2022-12-28T10:05:29.661Z,10.26
2022-12-28T10:07:59.355Z,10.33
2022-12-28T10:10:27.074Z,10.42
2022-12-28T10:12:54.655Z,10.41
2022-12-28T10:15:27.153Z,10.38
2022-12-28T10:17:53.990Z,10.52
2022-12-28T10:20:22.393Z,10.53
2022-12-28T10:22:52.983Z,10.58
2022-12-28T10:25:22.752Z,10.64
2022-12-28T10:27:49.792Z,10.61
2022-12-28T10:30:27.688Z,10.61
2022-12-28T10:33:03.094Z,10.59
2022-12-28T10:35:36.289Z,10.69
2022-12-28T10:38:05.753Z,10.65
2022-12-28T10:40:36.883Z,10.69
2022-12-28T10:43:10.517Z,10.75
2022-12-28T10:45:46.119Z,10.73
2022-12-28T10:48:21.907Z,10.78
2022-12-28T10:50:48.370Z,10.74
2022-12-28T10:53:27.091Z,10.91
2022-12-28T10:56:05.183Z,10.87
2022-12-28T10:58:34.283Z,10.90
2022-12-28T11:01:07.720Z,10.92
2022-12-28T11:03:38.464Z,10.92
2022-12-28T11:06:12.515Z,10.96
2022-12-28T11:08:40.837Z,10.98
2022-12-28T11:11:15.927Z,10.98
2022-12-28T11:13:45.396Z,10.97
2022-12-28T11:16:13.616Z,10.96
2022-12-28T11:18:41.310Z,11.00
2022-12-28T11:21:11.658Z,11.13
2022-12-28T11:23:38.778Z,11.07
2022-12-28T11:26:09.274Z,11.10
2022-12-28T11:28:35.791Z,11.20
2022-12-28T11:31:04.553Z,11.22
2022-12-28T11:33:46.082Z,11.09
2022-12-28T11:36:20.750Z,11.18
2022-12-28T11:38:49.498Z,11.23
2022-12-28T11:41:30.290Z,11.23
2022-12-28T11:44:09.517Z,11.20
2022-12-28T11:46:38.708Z,11.28
2022-12-28T11:49:23.685Z,11.26
2022-12-28T11:52:27.426Z,11.26
2022-12-28T11:54:56.896Z,11.28
2022-12-28T11:57:40.704Z,11.31
2022-12-28T12:00:22.660Z,11.33
2022-12-28T12:03:02.036Z,11.33
2022-12-28T12:05:37.542Z,11.15
2022-12-28T12:08:10.152Z,11.03
2022-12-28T12:10:39.895Z,10.95
2022-12-28T12:13:25.152Z,10.82
2022-12-28T12:16:15.326Z,10.80
2022-12-28T12:19:01.403Z,10.75
2022-12-28T12:21:30.356Z,10.67
2022-12-28T12:24:04.837Z,10.79
2022-12-28T12:26:54.274Z,10.79
2022-12-28T12:29:38.268Z,10.79
2022-12-28T12:32:11.565Z,10.77
2022-12-28T12:34:56.773Z,10.75
2022-12-28T12:37:58.773Z,10.65
2022-12-28T12:40:34.166Z,10.69
2022-12-28T12:43:19.219Z,10.74
2022-12-28T12:45:55.145Z,10.77
2022-12-28T12:48:42.752Z,10.70
2022-12-28T12:51:28.623Z,10.69
2022-12-28T12:54:07.113Z,10.72
2022-12-28T12:56:37.971Z,10.67
2022-12-28T12:59:23.350Z,10.59
2022-12-28T13:01:52.790Z,10.66
2022-12-28T13:04:24.229Z,10.62
2022-12-28T13:06:58.167Z,10.65
2022-12-28T13:09:28.109Z,10.53
2022-12-28T13:11:54.907Z,10.57
2022-12-28T13:14:23.725Z,10.50
2022-12-28T13:16:59.280Z,10.44
2022-12-28T13:19:28.447Z,10.46
2022-12-28T13:21:57.861Z,10.45
2022-12-28T13:24:30.061Z,10.41
2022-12-28T13:26:58.550Z,10.37
2022-12-28T13:29:38.435Z,10.33
2022-12-28T13:32:05.095Z,10.31
2022-12-28T13:34:37.648Z,10.30
2022-12-28T13:37:14.977Z,10.27
2022-12-28T13:39:42.447Z,10.22
2022-12-28T13:42:17.994Z,10.28
2022-12-28T13:44:46.032Z,10.25
2022-12-28T13:47:30.013Z,10.24
2022-12-28T13:50:17.715Z,10.23
2022-12-28T13:52:56.009Z,10.25
2022-12-28T13:55:27.157Z,10.29
2022-12-28T13:58:08.903Z,10.24
2022-12-28T14:00:38.186Z,10.25
2022-12-28T14:03:09.302Z,10.29
2022-12-28T14:05:36.000Z,10.28
2022-12-28T14:08:06.045Z,10.36
2022-12-28T14:10:33.175Z,10.37
2022-12-28T14:13:01.304Z,10.34
2022-12-28T14:15:28.177Z,10.40
2022-12-28T14:17:54.980Z,10.44
2022-12-28T14:20:21.798Z,10.48
2022-12-28T14:22:48.678Z,10.52
2022-12-28T14:25:17.924Z,10.52
2022-12-28T14:27:56.971Z,10.56
2022-12-28T14:30:50.812Z,10.57
2022-12-28T14:33:24.589Z,10.54
2022-12-28T14:35:55.085Z,10.59
2022-12-28T14:38:31.270Z,10.68
2022-12-28T14:41:00.188Z,10.65
2022-12-28T14:43:32.519Z,10.67
2022-12-28T14:46:36.707Z,10.68
2022-12-28T14:49:28.311Z,10.64
2022-12-28T14:52:16.357Z,10.74
2022-12-28T14:54:45.889Z,10.81
2022-12-28T14:57:33.870Z,10.79
2022-12-28T15:00:26.682Z,10.77
2022-12-28T15:02:55.013Z,10.84
2022-12-28T15:05:39.874Z,10.81
2022-12-28T15:08:07.257Z,10.75
2022-12-28T15:10:38.755Z,10.74
2022-12-28T15:13:05.251Z,10.76
2022-12-28T15:15:31.717Z,10.74
2022-12-28T15:17:58.291Z,10.75
2022-12-28T15:20:24.798Z,10.79
2022-12-28T15:22:51.322Z,10.77
2022-12-28T15:25:17.871Z,10.77
2022-12-28T15:27:44.371Z,10.75
2022-12-28T15:30:16.678Z,10.75
2022-12-28T15:32:46.431Z,10.74
2022-12-28T15:35:13.154Z,10.78
2022-12-28T15:37:39.656Z,10.71
2022-12-28T15:40:06.913Z,10.77
2022-12-28T15:42:39.893Z,10.78
2022-12-28T15:45:09.050Z,10.76
2022-12-28T15:47:35.751Z,10.80
2022-12-28T15:50:04.364Z,10.81
2022-12-28T15:52:31.910Z,10.77
2022-12-28T15:54:59.121Z,10.79
2022-12-28T15:57:26.156Z,10.79
2022-12-28T15:59:56.257Z,10.81
2022-12-28T16:02:23.755Z,10.89
2022-12-28T16:04:50.593Z,10.94
2022-12-28T16:07:19.113Z,10.94
2022-12-28T16:09:46.353Z,10.95
2022-12-28T16:12:17.327Z,10.90
2022-12-28T16:14:47.597Z,10.95
2022-12-28T16:17:14.888Z,11.03
2022-12-28T16:19:41.703Z,10.91
2022-12-28T16:22:08.265Z,11.04
2022-12-28T16:24:34.902Z,11.07
2022-12-28T16:27:01.469Z,11.02
2022-12-28T16:29:28.024Z,11.13
2022-12-28T16:31:55.355Z,11.11
2022-12-28T16:34:22.117Z,11.14
2022-12-28T16:36:48.680Z,11.08
2022-12-28T16:39:17.246Z,11.17
2022-12-28T16:41:44.427Z,11.13
2022-12-28T16:44:17.113Z,11.18
2022-12-28T16:46:43.839Z,11.15
2022-12-28T16:49:11.270Z,11.18
2022-12-28T16:51:39.711Z,11.16
2022-12-28T16:54:07.227Z,11.15
2022-12-28T16:56:34.145Z,11.11
2022-12-28T16:59:00.929Z,11.23
2022-12-28T17:01:28.349Z,11.22
2022-12-28T17:04:01.846Z,11.18
2022-12-28T17:06:30.098Z,11.22
2022-12-28T17:08:56.569Z,11.26
2022-12-28T17:11:23.045Z,11.19
2022-12-28T17:13:49.494Z,11.21
2022-12-28T17:16:16.041Z,11.23
2022-12-28T17:18:42.544Z,11.16
2022-12-28T17:21:10.416Z,11.12
2022-12-28T17:23:39.486Z,11.02
2022-12-28T17:26:06.235Z,11.06
2022-12-28T17:28:32.740Z,11.01
2022-12-28T17:31:09.381Z,10.98
2022-12-28T17:33:39.636Z,10.80
2022-12-28T17:36:07.350Z,10.85
2022-12-28T17:38:33.820Z,10.74
2022-12-28T17:41:00.396Z,10.67
2022-12-28T17:43:26.915Z,10.68
2022-12-28T17:45:53.503Z,10.64
2022-12-28T17:48:20.289Z,10.54
2022-12-28T17:50:47.135Z,10.42
2022-12-28T17:53:13.704Z,10.47
2022-12-28T17:55:40.249Z,10.35
2022-12-28T17:58:06.698Z,10.24
2022-12-28T18:00:33.273Z,10.27
2022-12-28T18:02:59.895Z,10.26
2022-12-28T18:05:26.564Z,10.15
2022-12-28T18:07:53.065Z,10.10
2022-12-28T18:10:22.431Z,10.07
2022-12-28T18:12:49.916Z,9.93
2022-12-28T18:15:16.709Z,9.92
2022-12-28T18:17:43.308Z,9.90
2022-12-28T18:20:10.207Z,9.86
2022-12-28T18:22:36.658Z,9.87
2022-12-28T18:25:03.366Z,9.86
2022-12-28T18:27:29.917Z,9.96
2022-12-28T18:29:56.379Z,9.83
2022-12-28T18:32:22.928Z,9.85
2022-12-28T18:34:49.379Z,9.90
2022-12-28T18:37:15.832Z,9.78
2022-12-28T18:39:42.827Z,9.92
2022-12-28T18:42:09.299Z,9.85
2022-12-28T18:44:35.748Z,9.89
2022-12-28T18:47:02.303Z,9.84
2022-12-28T18:49:29.330Z,9.85
2022-12-28T18:51:56.362Z,9.78
2022-12-28T18:54:22.826Z,9.71
2022-12-28T18:56:49.449Z,9.73
2022-12-28T18:59:15.928Z,9.73
2022-12-28T19:04:30.088Z,9.61
2022-12-28T19:06:56.781Z,9.60
2022-12-28T19:09:23.231Z,9.68
2022-12-28T19:11:49.758Z,9.57
2022-12-28T19:14:16.280Z,9.54
2022-12-28T19:16:44.010Z,9.55
2022-12-28T19:19:11.469Z,9.54
2022-12-28T19:21:42.461Z,9.46
2022-12-28T19:24:15.445Z,9.43
2022-12-28T19:26:42.940Z,9.38
2022-12-28T19:29:11.901Z,9.44
2022-12-28T19:31:38.430Z,9.47
2022-12-28T19:34:04.994Z,9.48
2022-12-28T19:36:31.655Z,9.42
2022-12-28T19:38:58.564Z,9.37
2022-12-28T19:41:25.329Z,9.39
2022-12-28T19:43:51.903Z,9.44
2022-12-28T19:46:30.553Z,9.38
2022-12-28T19:49:01.844Z,9.37
2022-12-28T19:51:31.821Z,9.45
2022-12-28T19:53:59.529Z,9.50
2022-12-28T19:56:26.170Z,9.52
2022-12-28T19:58:53.800Z,9.45
2022-12-28T20:01:28.109Z,9.48
2022-12-28T20:03:55.203Z,9.48
2022-12-28T20:06:25.310Z,9.47
2022-12-28T20:08:53.959Z,9.54
2022-12-28T20:11:21.890Z,9.55
2022-12-28T20:13:59.530Z,9.54
2022-12-28T20:16:28.264Z,9.52
2022-12-28T20:18:55.229Z,9.59
2022-12-28T20:21:23.535Z,9.75
2022-12-28T20:23:51.467Z,9.73
2022-12-28T20:26:19.326Z,9.75
2022-12-28T20:28:48.165Z,9.75
2022-12-28T20:31:15.252Z,9.82
2022-12-28T20:33:42.950Z,9.92
2022-12-28T20:36:15.863Z,9.95
2022-12-28T20:38:42.643Z,9.91
2022-12-28T20:41:39.164Z,9.98
2022-12-28T20:44:08.603Z,10.12
2022-12-28T20:46:35.935Z,10.08
2022-12-28T20:49:02.578Z,10.11
2022-12-28T20:51:29.124Z,10.17
2022-12-28T20:53:55.656Z,10.21
2022-12-28T20:56:23.069Z,10.26
2022-12-28T20:58:49.819Z,10.27
2022-12-28T21:01:17.328Z,10.35
2022-12-28T21:03:44.664Z,10.34
2022-12-28T21:06:11.428Z,10.40
2022-12-28T21:08:37.917Z,10.39
2022-12-28T21:11:05.173Z,10.47
2022-12-28T21:13:31.904Z,10.50
2022-12-28T21:15:58.703Z,10.39
2022-12-28T21:18:25.241Z,10.42
2022-12-28T21:20:55.507Z,10.43
2022-12-28T21:23:22.225Z,10.49
2022-12-28T21:25:49.175Z,10.53
2022-12-28T21:28:15.651Z,10.52
2022-12-28T21:30:42.135Z,10.54
2022-12-28T21:33:08.889Z,10.56
2022-12-28T21:35:35.434Z,10.57
2022-12-28T21:38:02.044Z,10.58
2022-12-28T21:40:28.733Z,10.56
2022-12-28T21:42:55.250Z,10.64
2022-12-28T21:45:21.800Z,10.69
2022-12-28T21:47:48.351Z,10.75
2022-12-28T21:50:14.882Z,10.77
2022-12-28T21:52:41.351Z,10.85
2022-12-28T21:55:26.765Z,10.85
2022-12-28T21:57:54.148Z,10.86
2022-12-28T22:00:39.499Z,10.89
2022-12-28T22:03:24.958Z,10.91
2022-12-28T22:06:03.440Z,10.88
2022-12-28T22:08:49.649Z,10.88
2022-12-28T22:11:34.906Z,10.93
2022-12-28T22:14:01.554Z,11.00
2022-12-28T22:16:28.136Z,10.98
2022-12-28T22:19:03.017Z,10.97
2022-12-28T22:21:30.022Z,10.92
2022-12-28T22:23:56.756Z,10.96
2022-12-28T22:26:23.665Z,10.98
2022-12-28T22:28:50.277Z,10.94
2022-12-28T22:31:16.795Z,10.95
2022-12-28T22:33:43.467Z,10.90
2022-12-28T22:36:14.613Z,10.79
2022-12-28T22:38:41.104Z,10.74
2022-12-28T22:41:07.675Z,10.75
2022-12-28T22:43:34.639Z,10.69
2022-12-28T22:46:10.257Z,10.68
2022-12-28T22:48:37.370Z,10.65
2022-12-28T22:51:14.309Z,10.64
2022-12-28T22:53:41.422Z,10.65
2022-12-28T22:56:12.687Z,10.68
2022-12-28T22:58:39.248Z,10.64
2022-12-28T23:01:11.690Z,10.64
2022-12-28T23:03:40.251Z,10.62
2022-12-28T23:06:08.421Z,10.66
2022-12-28T23:08:35.477Z,10.64
2022-12-28T23:11:05.838Z,10.70
2022-12-28T23:13:33.128Z,10.78
2022-12-28T23:16:02.735Z,10.85
2022-12-28T23:18:48.240Z,10.78
2022-12-28T23:21:38.678Z,10.83
2022-12-28T23:24:25.181Z,10.83
2022-12-28T23:27:10.061Z,10.85
2022-12-28T23:29:36.530Z,10.91
2022-12-28T23:32:03.168Z,10.99
2022-12-28T23:34:29.650Z,11.00
2022-12-28T23:36:56.277Z,11.11
2022-12-28T23:39:23.571Z,11.13
2022-12-28T23:41:50.886Z,11.15
2022-12-28T23:44:22.193Z,11.14
2022-12-28T23:46:53.835Z,11.15
2022-12-28T23:49:24.478Z,11.21
2022-12-28T23:51:51.021Z,11.30
2022-12-28T23:54:19.412Z,11.31
2022-12-28T23:56:46.916Z,11.34
2022-12-28T23:59:13.386Z,11.43
